Time,TemperatureF,DewpointF,PressureIn,WindDirection,WindDirectionDegrees,WindSpeedMPH,WindSpeedGustMPH,Humidity,HourlyPrecipIn,Conditions,Clouds,dailyrainin,SoftwareType,DateUTC
2013-08-22 00:04:00,69.1,68.0,29.95,NNE,28,0.0,0.0,95,0.00,,,0.19,weatherlink.com 1.10,2013-08-22 05:04:00,
2013-08-22 00:19:00,68.9,68.0,29.95,NNE,28,0.0,0.0,95,0.01,,,0.20,weatherlink.com 1.10,2013-08-22 05:19:00,
2013-08-22 00:34:00,68.9,68.0,29.95,NNE,28,0.0,0.0,95,0.01,,,0.20,weatherlink.com 1.10,2013-08-22 05:34:00,
2013-08-22 00:49:00,68.6,67.0,29.95,NNE,28,0.0,0.0,95,0.01,,,0.20,weatherlink.com 1.10,2013-08-22 05:49:00,
2013-08-22 01:04:00,68.3,67.0,29.95,NNE,28,0.0,0.0,95,0.01,,,0.20,weatherlink.com 1.10,2013-08-22 06:04:00,
2013-08-22 01:19:00,68.0,67.0,29.96,NNE,28,0.0,0.0,95,0.00,,,0.20,weatherlink.com 1.10,2013-08-22 06:19:00,
2013-08-22 01:34:00,67.7,66.0,29.97,NNE,28,0.0,0.0,95,0.00,,,0.20,weatherlink.com 1.10,2013-08-22 06:34:00,
2013-08-22 01:49:00,67.5,66.0,29.97,NNE,28,0.0,0.0,95,0.00,,,0.20,weatherlink.com 1.10,2013-08-22 06:49:00,
2013-08-22 02:04:00,67.4,66.0,29.96,NNE,28,0.0,0.0,95,0.00,,,0.20,weatherlink.com 1.10,2013-08-22 07:04:00,
2013-08-22 02:19:00,67.2,66.0,29.97,NNE,28,0.0,0.0,95,0.00,,,0.20,weatherlink.com 1.10,2013-08-22 07:19:00,
2013-08-22 02:34:00,67.2,66.0,29.97,NNE,28,0.0,0.0,95,0.00,,,0.20,weatherlink.com 1.10,2013-08-22 07:34:00,
2013-08-22 02:49:00,67.2,66.0,29.97,NNE,28,0.0,0.0,95,0.00,,,0.20,weatherlink.com 1.10,2013-08-22 07:49:00,
2013-08-22 03:04:00,67.3,66.0,29.97,NNE,28,0.0,0.0,96,0.00,,,0.20,weatherlink.com 1.10,2013-08-22 08:04:00,
2013-08-22 03:19:00,67.3,66.0,29.97,NNE,26,0.0,0.0,96,0.00,,,0.20,weatherlink.com 1.10,2013-08-22 08:19:00,
2013-08-22 03:34:00,67.1,66.0,29.97,NE,45,0.0,1.0,96,0.00,,,0.20,weatherlink.com 1.10,2013-08-22 08:34:00,
2013-08-22 03:49:00,66.9,66.0,29.97,NE,48,0.0,0.0,95,0.00,,,0.20,weatherlink.com 1.10,2013-08-22 08:49:00,
2013-08-22 04:04:00,66.8,65.0,29.97,NE,48,0.0,0.0,95,0.00,,,0.20,weatherlink.com 1.10,2013-08-22 09:04:00,
2013-08-22 04:19:00,66.7,66.0,29.97,NE,49,0.0,0.0,96,0.00,,,0.20,weatherlink.com 1.10,2013-08-22 09:19:00,
2013-08-22 04:34:00,66.6,65.0,29.98,NE,48,0.0,4.0,95,0.00,,,0.20,weatherlink.com 1.10,2013-08-22 09:34:00,
2013-08-22 04:49:00,66.4,65.0,29.98,ENE,66,3.0,4.0,95,0.00,,,0.20,weatherlink.com 1.10,2013-08-22 09:49:00,
2013-08-22 05:04:00,66.0,65.0,29.98,NNW,331,1.0,4.0,95,0.00,,,0.20,weatherlink.com 1.10,2013-08-22 10:04:00,
2013-08-22 05:19:00,65.8,64.0,29.98,East,100,2.0,7.0,95,0.00,,,0.20,weatherlink.com 1.10,2013-08-22 10:19:00,
2013-08-22 05:34:00,65.8,64.0,29.97,ENE,65,0.0,3.0,95,0.00,,,0.20,weatherlink.com 1.10,2013-08-22 10:34:00,
2013-08-22 05:50:00,65.7,64.0,29.98,ENE,57,1.0,6.0,95,0.00,,,0.20,weatherlink.com 1.10,2013-08-22 10:50:00,
2013-08-22 07:35:00,66.8,65.0,30.01,ESE,105,5.0,10.0,93,0.00,,,0.20,weatherlink.com 1.10,2013-08-22 12:35:00,
2013-08-22 07:50:00,67.3,65.0,30.02,NW,325,4.0,10.0,92,0.00,,,0.20,weatherlink.com 1.10,2013-08-22 12:50:00,
2013-08-22 08:05:00,67.7,65.0,30.02,ENE,61,2.0,8.0,90,0.00,,,0.20,weatherlink.com 1.10,2013-08-22 13:05:00,
2013-08-22 08:20:00,68.0,65.0,30.02,East,88,3.0,7.0,89,0.00,,,0.00,weatherlink.com 1.10,2013-08-22 13:20:00,
2013-08-22 08:35:00,68.0,64.0,30.02,SE,146,2.0,8.0,88,0.00,,,0.00,weatherlink.com 1.10,2013-08-22 13:35:00,
2013-08-22 08:50:00,68.7,64.0,30.03,East,93,2.0,8.0,85,0.00,,,0.00,weatherlink.com 1.10,2013-08-22 13:50:00,
2013-08-22 09:05:00,68.6,64.0,30.02,NNW,347,1.0,8.0,85,0.00,,,0.00,weatherlink.com 1.10,2013-08-22 14:05:00,
2013-08-22 09:20:00,68.5,64.0,30.03,East,79,1.0,7.0,86,0.00,,,0.00,weatherlink.com 1.10,2013-08-22 14:20:00,
2013-08-22 09:35:00,68.8,64.0,30.04,NE,49,1.0,9.0,85,0.00,,,0.00,weatherlink.com 1.10,2013-08-22 14:35:00,
2013-08-22 09:50:00,69.1,65.0,30.05,North,9,5.0,6.0,85,0.00,,,0.00,weatherlink.com 1.10,2013-08-22 14:50:00,
2013-08-22 10:05:00,68.9,64.0,30.05,NNE,24,4.0,6.0,85,0.00,,,0.00,weatherlink.com 1.10,2013-08-22 15:05:00,
2013-08-22 10:20:00,69.4,64.0,30.06,ENE,62,0.0,5.0,84,0.00,,,0.00,weatherlink.com 1.10,2013-08-22 15:20:00,
2013-08-22 10:35:00,69.9,65.0,30.06,NNW,337,0.0,5.0,83,0.00,,,0.00,weatherlink.com 1.10,2013-08-22 15:35:00,
2013-08-22 10:50:00,70.7,64.0,30.06,WSW,238,3.0,6.0,80,0.00,,,0.00,weatherlink.com 1.10,2013-08-22 15:50:00,
2013-08-22 11:20:00,72.5,66.0,30.07,West,261,3.0,6.0,79,0.00,,,0.00,weatherlink.com 1.10,2013-08-22 16:20:00,
2013-08-22 11:35:00,72.4,66.0,30.06,WSW,254,6.0,7.0,81,0.00,,,0.00,weatherlink.com 1.10,2013-08-22 16:35:00,
2013-08-22 11:50:00,72.6,66.0,30.06,WSW,242,2.0,8.0,79,0.00,,,0.00,weatherlink.com 1.10,2013-08-22 16:50:00,
2013-08-22 12:05:00,73.9,66.0,30.06,SW,225,5.0,6.0,76,0.00,,,0.00,weatherlink.com 1.10,2013-08-22 17:05:00,
2013-08-22 12:20:00,75.4,66.0,30.05,NW,307,0.0,3.0,72,0.00,,,0.00,weatherlink.com 1.10,2013-08-22 17:20:00,
2013-08-22 12:35:00,77.0,65.0,30.04,NNE,22,0.0,3.0,67,0.00,,,0.00,weatherlink.com 1.10,2013-08-22 17:35:00,
2013-08-22 12:50:00,78.6,63.0,30.03,East,90,1.0,5.0,60,0.00,,,0.00,weatherlink.com 1.10,2013-08-22 17:50:00,
2013-08-22 13:06:00,79.5,64.0,30.03,SE,129,0.0,8.0,59,0.00,,,0.00,weatherlink.com 1.10,2013-08-22 18:06:00,
2013-08-22 13:20:00,79.7,62.0,30.03,NW,308,4.0,8.0,54,0.00,,,0.00,weatherlink.com 1.10,2013-08-22 18:20:00,
2013-08-22 13:36:00,81.7,59.0,30.03,ESE,117,8.0,9.0,47,0.00,,,0.00,weatherlink.com 1.10,2013-08-22 18:36:00,
2013-08-22 13:51:00,82.3,61.0,30.03,SSW,206,3.0,7.0,48,0.00,,,0.00,weatherlink.com 1.10,2013-08-22 18:51:00,
2013-08-22 14:06:00,82.6,60.0,30.03,SE,126,7.0,9.0,46,0.00,,,0.00,weatherlink.com 1.10,2013-08-22 19:06:00,
2013-08-22 14:21:00,82.1,62.0,30.03,SSE,148,4.0,10.0,51,0.00,,,0.00,weatherlink.com 1.10,2013-08-22 19:21:00,
2013-08-22 14:36:00,83.6,61.0,30.02,NNE,13,2.0,10.0,47,0.00,,,0.00,weatherlink.com 1.10,2013-08-22 19:36:00,
2013-08-22 14:51:00,84.8,61.0,30.02,ENE,71,7.0,11.0,45,0.00,,,0.00,weatherlink.com 1.10,2013-08-22 19:51:00,
2013-08-22 15:06:00,85.0,60.0,30.02,NE,49,3.0,10.0,43,0.00,,,0.00,weatherlink.com 1.10,2013-08-22 20:06:00,
2013-08-22 15:21:00,85.0,57.0,30.02,SE,138,5.0,10.0,39,0.00,,,0.00,weatherlink.com 1.10,2013-08-22 20:21:00,
2013-08-22 15:36:00,84.9,57.0,30.02,East,101,3.0,9.0,39,0.00,,,0.00,weatherlink.com 1.10,2013-08-22 20:36:00,
2013-08-22 15:51:00,85.2,56.0,30.02,SE,136,4.0,11.0,37,0.00,,,0.00,weatherlink.com 1.10,2013-08-22 20:51:00,
2013-08-22 16:06:00,85.3,56.0,30.02,SE,133,3.0,10.0,37,0.00,,,0.00,weatherlink.com 1.10,2013-08-22 21:06:00,
2013-08-22 16:21:00,85.6,54.0,30.02,ENE,61,9.0,9.0,34,0.00,,,0.00,weatherlink.com 1.10,2013-08-22 21:21:00,
2013-08-22 16:36:00,87.2,54.0,30.02,ENE,76,0.0,8.0,32,0.00,,,0.00,weatherlink.com 1.10,2013-08-22 21:36:00,
2013-08-22 16:51:00,86.5,55.0,30.02,SE,138,2.0,8.0,34,0.00,,,0.00,weatherlink.com 1.10,2013-08-22 21:51:00,
2013-08-22 17:06:00,85.0,56.0,30.02,ESE,113,4.0,8.0,37,0.00,,,0.00,weatherlink.com 1.10,2013-08-22 22:06:00,
2013-08-22 17:21:00,84.9,56.0,30.02,SE,131,4.0,9.0,37,0.00,,,0.00,weatherlink.com 1.10,2013-08-22 22:21:00,
2013-08-22 17:36:00,84.5,56.0,30.02,ESE,105,1.0,5.0,38,0.00,,,0.00,weatherlink.com 1.10,2013-08-22 22:36:00,
2013-08-22 17:51:00,85.9,57.0,30.02,East,96,1.0,7.0,38,0.00,,,0.00,weatherlink.com 1.10,2013-08-22 22:51:00,
2013-08-22 18:21:00,86.1,58.0,30.02,NNW,331,0.0,8.0,38,0.00,,,0.00,weatherlink.com 1.10,2013-08-22 23:21:00,
2013-08-22 18:36:00,85.4,57.0,30.02,NNE,32,4.0,8.0,38,0.00,,,0.00,weatherlink.com 1.10,2013-08-22 23:36:00,
2013-08-22 18:51:00,84.6,58.0,30.02,NE,38,2.0,8.0,40,0.00,,,0.00,weatherlink.com 1.10,2013-08-22 23:51:00,
2013-08-22 19:06:00,84.3,57.0,30.02,NE,45,2.0,5.0,40,0.00,,,0.00,weatherlink.com 1.10,2013-08-23 00:06:00,
2013-08-22 19:21:00,83.5,58.0,30.03,NE,48,4.0,5.0,42,0.00,,,0.00,weatherlink.com 1.10,2013-08-23 00:21:00,
2013-08-22 19:36:00,82.7,59.0,30.03,ENE,66,0.0,3.0,45,0.00,,,0.00,weatherlink.com 1.10,2013-08-23 00:36:00,
2013-08-22 19:51:00,81.5,60.0,30.03,ENE,72,0.0,2.0,49,0.00,,,0.00,weatherlink.com 1.10,2013-08-23 00:51:00,
2013-08-22 20:06:00,80.3,62.0,30.04,ENE,72,0.0,2.0,54,0.00,,,0.00,weatherlink.com 1.10,2013-08-23 01:06:00,
2013-08-22 20:21:00,79.3,61.0,30.04,ENE,72,0.0,2.0,54,0.00,,,0.00,weatherlink.com 1.10,2013-08-23 01:21:00,
2013-08-22 20:36:00,78.8,61.0,30.04,ENE,74,0.0,1.0,54,0.00,,,0.00,weatherlink.com 1.10,2013-08-23 01:36:00,
2013-08-22 20:51:00,77.1,61.0,30.05,East,94,0.0,0.0,57,0.00,,,0.00,weatherlink.com 1.10,2013-08-23 01:51:00,
2013-08-22 21:06:00,76.7,60.0,30.05,East,94,0.0,0.0,57,0.00,,,0.00,weatherlink.com 1.10,2013-08-23 02:06:00,
2013-08-22 21:21:00,76.0,61.0,30.05,East,92,0.0,0.0,61,0.00,,,0.00,weatherlink.com 1.10,2013-08-23 02:21:00,
2013-08-22 21:36:00,75.4,61.0,30.06,South,183,0.0,0.0,61,0.00,,,0.00,weatherlink.com 1.10,2013-08-23 02:36:00,
2013-08-22 21:51:00,74.3,61.0,30.06,South,186,0.0,0.0,63,0.00,,,0.00,weatherlink.com 1.10,2013-08-23 02:51:00,
2013-08-22 22:06:00,74.0,62.0,30.06,SSE,156,0.0,0.0,66,0.00,,,0.00,weatherlink.com 1.10,2013-08-23 03:06:00,
2013-08-22 22:21:00,73.1,62.0,30.06,SSE,157,0.0,0.0,69,0.00,,,0.00,weatherlink.com 1.10,2013-08-23 03:21:00,
2013-08-22 22:36:00,72.5,63.0,30.06,SE,144,0.0,0.0,71,0.00,,,0.00,weatherlink.com 1.10,2013-08-23 03:36:00,
2013-08-22 22:51:00,71.8,62.0,30.06,South,181,0.0,0.0,72,0.00,,,0.00,weatherlink.com 1.10,2013-08-23 03:51:00,
2013-08-22 23:06:00,70.8,63.0,30.07,South,182,0.0,0.0,75,0.00,,,0.00,weatherlink.com 1.10,2013-08-23 04:06:00,
2013-08-22 23:21:00,70.1,62.0,30.07,SSW,196,0.0,0.0,76,0.00,,,0.00,weatherlink.com 1.10,2013-08-23 04:21:00,
2013-08-22 23:36:00,69.8,62.0,30.07,South,188,0.0,0.0,76,0.00,,,0.00,weatherlink.com 1.10,2013-08-23 04:36:00,
2013-08-22 23:51:00,69.6,62.0,30.07,South,184,0.0,0.0,77,0.00,,,0.00,weatherlink.com 1.10,2013-08-23 04:51:00,